sensor_id;sensor_type;location;lat;lon;timestamp;P1;durP1;ratioP1;P2;durP2;ratioP2
30466;SDS011;17258;52.560;13.046;2023-02-23T00:03:17;5.43;;;4.00;;
30466;SDS011;17258;52.560;13.046;2023-02-23T00:13:18;5.97;;;4.90;;
30466;SDS011;17258;52.560;13.046;2023-02-23T00:23:19;7.28;;;4.22;;
30466;SDS011;17258;52.560;13.046;2023-02-23T00:33:19;8.30;;;4.67;;
30466;SDS011;17258;52.560;13.046;2023-02-23T00:43:20;9.13;;;5.53;;
30466;SDS011;17258;52.560;13.046;2023-02-23T00:53:23;7.07;;;5.07;;
30466;SDS011;17258;52.560;13.046;2023-02-23T01:03:28;8.00;;;4.70;;
30466;SDS011;17258;52.560;13.046;2023-02-23T01:13:29;8.30;;;5.25;;
30466;SDS011;17258;52.560;13.046;2023-02-23T01:23:30;7.70;;;5.17;;
30466;SDS011;17258;52.560;13.046;2023-02-23T01:33:31;11.73;;;5.97;;
30466;SDS011;17258;52.560;13.046;2023-02-23T01:43:32;7.13;;;5.40;;
30466;SDS011;17258;52.560;13.046;2023-02-23T01:53:34;11.30;;;5.87;;
30466;SDS011;17258;52.560;13.046;2023-02-23T02:03:59;11.02;;;6.03;;
30466;SDS011;17258;52.560;13.046;2023-02-23T02:14:09;10.02;;;6.68;;
30466;SDS011;17258;52.560;13.046;2023-02-23T02:24:23;10.60;;;6.47;;
30466;SDS011;17258;52.560;13.046;2023-02-23T02:35:18;10.85;;;6.50;;
30466;SDS011;17258;52.560;13.046;2023-02-23T02:45:50;9.98;;;6.50;;
30466;SDS011;17258;52.560;13.046;2023-02-23T02:56:03;9.27;;;7.13;;
30466;SDS011;17258;52.560;13.046;2023-02-23T03:06:05;16.25;;;6.80;;
30466;SDS011;17258;52.560;13.046;2023-02-23T03:16:29;8.88;;;5.65;;
30466;SDS011;17258;52.560;13.046;2023-02-23T03:27:10;8.75;;;6.13;;
30466;SDS011;17258;52.560;13.046;2023-02-23T03:37:54;9.13;;;6.65;;
30466;SDS011;17258;52.560;13.046;2023-02-23T03:48:26;9.60;;;7.10;;
30466;SDS011;17258;52.560;13.046;2023-02-23T03:58:49;9.50;;;7.15;;
30466;SDS011;17258;52.560;13.046;2023-02-23T04:09:11;16.13;;;7.53;;
30466;SDS011;17258;52.560;13.046;2023-02-23T04:19:30;8.07;;;6.68;;
30466;SDS011;17258;52.560;13.046;2023-02-23T04:29:31;12.43;;;7.73;;
30466;SDS011;17258;52.560;13.046;2023-02-23T04:39:32;11.53;;;7.60;;
30466;SDS011;17258;52.560;13.046;2023-02-23T04:49:32;14.90;;;7.90;;
30466;SDS011;17258;52.560;13.046;2023-02-23T04:59:33;8.20;;;6.90;;
30466;SDS011;17258;52.560;13.046;2023-02-23T05:09:34;10.02;;;6.80;;
30466;SDS011;17258;52.560;13.046;2023-02-23T05:19:34;10.83;;;6.97;;
30466;SDS011;17258;52.560;13.046;2023-02-23T05:29:36;14.05;;;7.65;;
30466;SDS011;17258;52.560;13.046;2023-02-23T05:39:37;10.73;;;6.82;;
30466;SDS011;17258;52.560;13.046;2023-02-23T05:49:37;13.97;;;7.73;;
30466;SDS011;17258;52.560;13.046;2023-02-23T05:59:38;11.70;;;8.27;;
30466;SDS011;17258;52.560;13.046;2023-02-23T06:09:39;15.88;;;8.45;;
30466;SDS011;17258;52.560;13.046;2023-02-23T06:19:39;19.95;;;6.85;;
30466;SDS011;17258;52.560;13.046;2023-02-23T06:29:40;11.97;;;7.97;;
30466;SDS011;17258;52.560;13.046;2023-02-23T06:39:41;11.00;;;7.47;;
30466;SDS011;17258;52.560;13.046;2023-02-23T06:49:41;10.48;;;7.95;;
30466;SDS011;17258;52.560;13.046;2023-02-23T06:59:42;9.57;;;7.23;;
30466;SDS011;17258;52.560;13.046;2023-02-23T07:09:43;16.40;;;6.67;;
30466;SDS011;17258;52.560;13.046;2023-02-23T07:19:43;14.83;;;7.80;;
30466;SDS011;17258;52.560;13.046;2023-02-23T07:29:44;9.13;;;8.20;;
30466;SDS011;17258;52.560;13.046;2023-02-23T07:39:44;16.47;;;9.50;;
30466;SDS011;17258;52.560;13.046;2023-02-23T07:49:45;13.87;;;9.40;;
30466;SDS011;17258;52.560;13.046;2023-02-23T07:59:46;17.57;;;16.20;;
30466;SDS011;17258;52.560;13.046;2023-02-23T08:09:47;20.30;;;18.13;;
30466;SDS011;17258;52.560;13.046;2023-02-23T08:19:48;20.77;;;18.98;;
30466;SDS011;17258;52.560;13.046;2023-02-23T08:29:49;23.80;;;21.77;;
30466;SDS011;17258;52.560;13.046;2023-02-23T08:39:51;25.98;;;23.55;;
30466;SDS011;17258;52.560;13.046;2023-02-23T08:49:52;27.97;;;25.37;;
30466;SDS011;17258;52.560;13.046;2023-02-23T08:59:56;26.65;;;24.45;;
30466;SDS011;17258;52.560;13.046;2023-02-23T09:09:57;28.38;;;24.60;;
30466;SDS011;17258;52.560;13.046;2023-02-23T09:19:57;27.23;;;24.92;;
30466;SDS011;17258;52.560;13.046;2023-02-23T09:29:58;27.03;;;24.67;;
30466;SDS011;17258;52.560;13.046;2023-02-23T09:40:00;26.58;;;24.45;;
30466;SDS011;17258;52.560;13.046;2023-02-23T09:50:02;8.00;;;7.30;;
30466;SDS011;17258;52.560;13.046;2023-02-23T10:00:16;21.23;;;19.42;;
30466;SDS011;17258;52.560;13.046;2023-02-23T10:20:59;29.15;;;26.45;;
30466;SDS011;17258;52.560;13.046;2023-02-23T10:31:13;30.52;;;27.95;;
30466;SDS011;17258;52.560;13.046;2023-02-23T10:41:34;31.85;;;28.95;;
30466;SDS011;17258;52.560;13.046;2023-02-23T10:51:37;30.23;;;27.60;;
30466;SDS011;17258;52.560;13.046;2023-02-23T11:01:40;29.63;;;27.08;;
30466;SDS011;17258;52.560;13.046;2023-02-23T11:12:02;30.40;;;27.85;;
30466;SDS011;17258;52.560;13.046;2023-02-23T11:22:17;32.78;;;29.50;;
30466;SDS011;17258;52.560;13.046;2023-02-23T11:32:26;32.13;;;29.40;;
30466;SDS011;17258;52.560;13.046;2023-02-23T11:42:42;32.40;;;29.50;;
30466;SDS011;17258;52.560;13.046;2023-02-23T11:53:11;33.72;;;30.70;;
30466;SDS011;17258;52.560;13.046;2023-02-23T12:03:16;33.75;;;30.60;;
30466;SDS011;17258;52.560;13.046;2023-02-23T12:23:56;31.65;;;28.95;;
30466;SDS011;17258;52.560;13.046;2023-02-23T12:34:22;32.03;;;29.00;;
30466;SDS011;17258;52.560;13.046;2023-02-23T12:44:38;33.05;;;29.95;;
30466;SDS011;17258;52.560;13.046;2023-02-23T12:54:50;33.35;;;30.30;;
30466;SDS011;17258;52.560;13.046;2023-02-23T13:04:56;32.40;;;29.58;;
30466;SDS011;17258;52.560;13.046;2023-02-23T13:15:40;32.83;;;29.90;;
30466;SDS011;17258;52.560;13.046;2023-02-23T13:36:11;32.17;;;29.30;;
30466;SDS011;17258;52.560;13.046;2023-02-23T13:56:47;26.42;;;24.20;;
30466;SDS011;17258;52.560;13.046;2023-02-23T14:27:20;22.30;;;19.75;;
30466;SDS011;17258;52.560;13.046;2023-02-23T14:37:33;21.02;;;18.88;;
30466;SDS011;17258;52.560;13.046;2023-02-23T14:47:40;22.58;;;20.20;;
30466;SDS011;17258;52.560;13.046;2023-02-23T14:57:45;20.85;;;18.17;;
30466;SDS011;17258;52.560;13.046;2023-02-23T15:07:46;21.27;;;16.77;;
30466;SDS011;17258;52.560;13.046;2023-02-23T15:17:49;18.85;;;17.13;;
30466;SDS011;17258;52.560;13.046;2023-02-23T15:27:54;21.08;;;18.00;;
30466;SDS011;17258;52.560;13.046;2023-02-23T15:37:55;20.08;;;17.65;;
30466;SDS011;17258;52.560;13.046;2023-02-23T15:47:59;19.63;;;16.25;;
30466;SDS011;17258;52.560;13.046;2023-02-23T16:08:23;24.15;;;20.25;;
30466;SDS011;17258;52.560;13.046;2023-02-23T16:18:30;17.25;;;14.85;;
30466;SDS011;17258;52.560;13.046;2023-02-23T16:28:40;23.33;;;18.42;;
30466;SDS011;17258;52.560;13.046;2023-02-23T16:38:56;26.88;;;18.50;;
30466;SDS011;17258;52.560;13.046;2023-02-23T16:48:59;20.85;;;17.95;;
30466;SDS011;17258;52.560;13.046;2023-02-23T16:59:09;18.75;;;16.80;;
30466;SDS011;17258;52.560;13.046;2023-02-23T17:09:15;26.67;;;19.77;;
30466;SDS011;17258;52.560;13.046;2023-02-23T17:19:15;20.00;;;17.07;;
30466;SDS011;17258;52.560;13.046;2023-02-23T17:29:17;19.42;;;17.23;;
30466;SDS011;17258;52.560;13.046;2023-02-23T17:39:18;23.53;;;19.90;;
30466;SDS011;17258;52.560;13.046;2023-02-23T17:49:18;24.60;;;20.57;;
30466;SDS011;17258;52.560;13.046;2023-02-23T17:59:19;21.40;;;19.13;;
30466;SDS011;17258;52.560;13.046;2023-02-23T18:09:20;27.55;;;23.75;;
30466;SDS011;17258;52.560;13.046;2023-02-23T18:19:21;22.63;;;18.73;;
30466;SDS011;17258;52.560;13.046;2023-02-23T18:29:22;29.20;;;20.33;;
30466;SDS011;17258;52.560;13.046;2023-02-23T18:39:22;31.93;;;17.83;;
30466;SDS011;17258;52.560;13.046;2023-02-23T18:49:23;21.67;;;18.00;;
30466;SDS011;17258;52.560;13.046;2023-02-23T18:59:24;26.20;;;21.38;;
30466;SDS011;17258;52.560;13.046;2023-02-23T19:09:25;24.87;;;20.87;;
30466;SDS011;17258;52.560;13.046;2023-02-23T19:19:25;26.50;;;18.70;;
30466;SDS011;17258;52.560;13.046;2023-02-23T19:29:26;20.20;;;17.83;;
30466;SDS011;17258;52.560;13.046;2023-02-23T19:39:26;21.23;;;15.07;;
30466;SDS011;17258;52.560;13.046;2023-02-23T19:49:28;23.83;;;15.50;;
30466;SDS011;17258;52.560;13.046;2023-02-23T19:59:29;22.30;;;15.30;;
30466;SDS011;17258;52.560;13.046;2023-02-23T20:09:30;25.97;;;15.67;;
30466;SDS011;17258;52.560;13.046;2023-02-23T20:19:30;23.47;;;15.20;;
30466;SDS011;17258;52.560;13.046;2023-02-23T20:29:32;32.95;;;15.32;;
30466;SDS011;17258;52.560;13.046;2023-02-23T20:39:33;23.98;;;16.55;;
30466;SDS011;17258;52.560;13.046;2023-02-23T20:49:34;25.60;;;15.60;;
30466;SDS011;17258;52.560;13.046;2023-02-23T20:59:35;19.40;;;13.60;;
30466;SDS011;17258;52.560;13.046;2023-02-23T21:09:36;21.23;;;15.00;;
30466;SDS011;17258;52.560;13.046;2023-02-23T21:19:38;23.08;;;15.32;;
30466;SDS011;17258;52.560;13.046;2023-02-23T21:29:39;26.87;;;16.30;;
30466;SDS011;17258;52.560;13.046;2023-02-23T21:39:43;21.58;;;14.90;;
30466;SDS011;17258;52.560;13.046;2023-02-23T21:49:45;25.48;;;15.10;;
30466;SDS011;17258;52.560;13.046;2023-02-23T21:59:48;28.38;;;16.70;;
30466;SDS011;17258;52.560;13.046;2023-02-23T22:09:49;28.60;;;15.52;;
30466;SDS011;17258;52.560;13.046;2023-02-23T22:19:50;33.50;;;17.17;;
30466;SDS011;17258;52.560;13.046;2023-02-23T22:29:53;27.65;;;16.98;;
30466;SDS011;17258;52.560;13.046;2023-02-23T22:39:55;25.53;;;15.07;;
30466;SDS011;17258;52.560;13.046;2023-02-23T22:50:11;25.13;;;13.82;;
30466;SDS011;17258;52.560;13.046;2023-02-23T23:00:17;24.58;;;15.77;;
30466;SDS011;17258;52.560;13.046;2023-02-23T23:10:18;24.35;;;15.07;;
30466;SDS011;17258;52.560;13.046;2023-02-23T23:20:19;23.00;;;14.10;;
30466;SDS011;17258;52.560;13.046;2023-02-23T23:30:24;22.40;;;13.18;;
30466;SDS011;17258;52.560;13.046;2023-02-23T23:40:27;22.52;;;13.15;;
30466;SDS011;17258;52.560;13.046;2023-02-23T23:50:29;20.73;;;12.88;;
